createdAt,value
2019-03-03T00:01:44.409Z,3.10
2019-03-03T00:04:12.072Z,3.10
2019-03-03T00:06:40.556Z,3.10
2019-03-03T00:09:09.241Z,3.10
2019-03-03T00:11:38.987Z,3.10
2019-03-03T00:14:06.498Z,3.00
2019-03-03T00:16:34.070Z,2.90
2019-03-03T00:19:01.656Z,2.90
2019-03-03T00:21:29.656Z,2.90
2019-03-03T00:23:57.463Z,2.90
2019-03-03T00:26:24.990Z,2.90
2019-03-03T00:28:52.698Z,2.90
2019-03-03T00:31:34.015Z,2.90
2019-03-03T00:34:01.777Z,2.90
2019-03-03T00:36:49.251Z,2.90
2019-03-03T00:39:27.918Z,2.90
2019-03-03T00:42:18.313Z,3.00
2019-03-03T00:45:09.631Z,3.00
2019-03-03T00:48:08.575Z,3.00
2019-03-03T00:50:45.514Z,3.00
2019-03-03T00:53:19.297Z,3.00
2019-03-03T00:56:05.080Z,3.00
2019-03-03T00:59:10.135Z,3.00
2019-03-03T01:01:43.895Z,3.00
2019-03-03T01:04:42.606Z,3.00
2019-03-03T01:07:29.872Z,3.00
2019-03-03T01:10:09.541Z,3.00
2019-03-03T01:12:59.837Z,3.10
2019-03-03T01:15:45.215Z,3.00
2019-03-03T01:18:41.605Z,3.10
2019-03-03T01:24:21.800Z,3.10
2019-03-03T01:26:49.202Z,3.10
2019-03-03T01:29:17.049Z,3.10
2019-03-03T01:31:44.476Z,3.10
2019-03-03T01:34:12.015Z,3.10
2019-03-03T01:36:39.530Z,3.10
2019-03-03T01:39:07.202Z,3.20
2019-03-03T01:41:35.703Z,3.20
2019-03-03T01:44:03.306Z,3.20
2019-03-03T01:46:30.823Z,3.20
2019-03-03T01:48:59.037Z,3.20
2019-03-03T01:51:26.378Z,3.20
2019-03-03T01:53:53.785Z,3.20
2019-03-03T01:56:21.363Z,3.20
2019-03-03T01:58:48.969Z,3.20
2019-03-03T02:01:16.624Z,3.20
2019-03-03T02:03:44.405Z,3.20
2019-03-03T02:06:12.135Z,3.20
2019-03-03T02:08:40.099Z,3.30
2019-03-03T02:11:07.735Z,3.30
2019-03-03T02:13:35.109Z,3.40
2019-03-03T02:16:04.556Z,3.40
2019-03-03T02:18:32.033Z,3.40
2019-03-03T02:20:59.511Z,3.50
2019-03-03T02:23:27.482Z,3.50
2019-03-03T02:25:54.839Z,3.50
2019-03-03T02:28:22.609Z,3.50
2019-03-03T02:30:50.141Z,3.50
2019-03-03T02:33:17.725Z,3.50
2019-03-03T02:35:45.179Z,3.60
2019-03-03T02:38:12.868Z,3.60
2019-03-03T02:40:40.540Z,3.60
2019-03-03T02:43:08.081Z,3.60
2019-03-03T02:45:35.730Z,3.60
2019-03-03T02:48:04.706Z,3.70
2019-03-03T02:50:32.398Z,3.70
2019-03-03T02:53:00.034Z,3.70
2019-03-03T02:55:27.569Z,3.70
2019-03-03T02:57:55.211Z,3.70
2019-03-03T03:00:22.987Z,3.80
2019-03-03T03:02:52.140Z,3.80
2019-03-03T03:05:39.650Z,3.80
2019-03-03T03:08:11.487Z,3.90
2019-03-03T03:11:15.818Z,3.90
2019-03-03T03:14:02.164Z,3.90
2019-03-03T03:16:38.374Z,4.00
2019-03-03T03:19:22.434Z,4.00
2019-03-03T03:22:16.157Z,4.00
2019-03-03T03:25:03.714Z,4.00
2019-03-03T03:27:50.906Z,4.10
2019-03-03T03:30:31.788Z,4.10
2019-03-03T03:33:30.817Z,4.10
2019-03-03T03:36:32.092Z,4.10
2019-03-03T03:39:19.451Z,4.10
2019-03-03T03:42:05.323Z,4.10
2019-03-03T03:44:52.563Z,4.10
2019-03-03T03:47:25.238Z,4.20
2019-03-03T03:50:13.972Z,4.20
2019-03-03T03:52:58.049Z,4.20
2019-03-03T03:55:49.543Z,4.30
2019-03-03T03:58:48.638Z,4.30
2019-03-03T04:01:28.614Z,4.30
2019-03-03T04:04:22.376Z,4.30
2019-03-03T04:06:56.977Z,4.30
2019-03-03T04:09:39.381Z,4.40
2019-03-03T04:12:13.231Z,4.40
2019-03-03T04:15:04.420Z,4.40
2019-03-03T04:17:45.965Z,4.40
2019-03-03T04:20:40.226Z,4.40
2019-03-03T04:23:30.329Z,4.50
2019-03-03T04:26:12.824Z,4.50
2019-03-03T04:28:47.687Z,4.50
2019-03-03T04:31:35.165Z,4.50
2019-03-03T04:34:25.482Z,4.60
2019-03-03T04:37:12.694Z,4.60
2019-03-03T04:40:03.408Z,4.60
2019-03-03T04:42:39.297Z,4.70
2019-03-03T04:45:18.560Z,4.70
2019-03-03T04:48:16.135Z,4.70
2019-03-03T04:51:03.222Z,4.70
2019-03-03T04:53:56.062Z,4.70
2019-03-03T04:56:43.323Z,4.80
2019-03-03T04:59:25.323Z,4.80
2019-03-03T05:02:22.059Z,4.80
2019-03-03T05:05:08.169Z,4.90
2019-03-03T05:07:42.869Z,4.90
2019-03-03T05:10:17.893Z,4.90
2019-03-03T05:12:56.566Z,5.00
2019-03-03T05:15:42.297Z,5.00
2019-03-03T05:18:32.081Z,5.00
2019-03-03T05:20:59.715Z,5.00
2019-03-03T05:23:27.111Z,5.00
2019-03-03T05:25:54.616Z,5.00
2019-03-03T05:28:22.103Z,5.20
2019-03-03T05:30:50.524Z,5.10
2019-03-03T05:33:18.237Z,5.10
2019-03-03T05:35:45.882Z,5.10
2019-03-03T05:38:13.484Z,5.20
2019-03-03T05:40:41.048Z,5.20
2019-03-03T05:43:08.614Z,5.20
2019-03-03T05:45:36.477Z,5.30
2019-03-03T05:48:04.065Z,5.20
2019-03-03T05:50:31.686Z,5.20
2019-03-03T05:52:59.700Z,5.30
2019-03-03T05:55:27.322Z,5.40
2019-03-03T05:57:59.293Z,5.40
2019-03-03T06:00:26.978Z,5.50
2019-03-03T06:02:55.154Z,5.50
2019-03-03T06:05:22.512Z,5.60
2019-03-03T06:07:50.446Z,5.60
2019-03-03T06:10:17.910Z,5.70
2019-03-03T06:12:45.432Z,5.80
2019-03-03T06:15:15.114Z,5.90
2019-03-03T06:17:43.280Z,5.90
2019-03-03T06:20:11.165Z,6.00
2019-03-03T06:22:38.751Z,6.10
2019-03-03T06:25:06.770Z,6.20
2019-03-03T06:27:34.332Z,6.20
2019-03-03T06:30:02.245Z,6.30
2019-03-03T06:32:30.943Z,6.40
2019-03-03T06:34:58.956Z,6.50
2019-03-03T06:37:27.390Z,6.50
2019-03-03T06:39:54.815Z,6.60
2019-03-03T06:42:22.155Z,6.70
2019-03-03T06:44:50.120Z,6.80
2019-03-03T06:47:17.820Z,6.80
2019-03-03T06:49:45.405Z,6.90
2019-03-03T06:52:12.891Z,6.90
2019-03-03T06:54:42.301Z,7.00
2019-03-03T06:57:09.785Z,7.10
2019-03-03T06:59:37.910Z,7.20
2019-03-03T07:02:05.723Z,7.30
2019-03-03T07:04:33.231Z,7.40
2019-03-03T07:07:00.736Z,7.40
2019-03-03T07:09:28.301Z,7.50
2019-03-03T07:11:56.040Z,7.60
2019-03-03T07:14:23.582Z,7.80
2019-03-03T07:16:50.964Z,7.90
2019-03-03T07:19:18.701Z,8.00
2019-03-03T07:21:46.242Z,8.40
2019-03-03T07:24:13.805Z,9.10
2019-03-03T07:26:41.492Z,9.90
2019-03-03T07:29:08.968Z,10.70
2019-03-03T07:31:36.639Z,11.30
2019-03-03T07:34:04.717Z,11.50
2019-03-03T07:36:32.331Z,11.50
2019-03-03T07:39:00.181Z,11.60
2019-03-03T07:41:27.511Z,11.70
2019-03-03T07:43:55.150Z,11.60
2019-03-03T07:46:22.691Z,11.40
2019-03-03T07:48:51.300Z,11.20
2019-03-03T07:51:18.753Z,11.00
2019-03-03T07:53:46.141Z,10.80
2019-03-03T07:56:14.622Z,10.70
2019-03-03T07:58:42.449Z,10.60
2019-03-03T08:01:09.797Z,10.50
2019-03-03T08:03:37.314Z,10.60
2019-03-03T08:06:04.959Z,10.70
2019-03-03T08:08:33.477Z,10.70
2019-03-03T08:11:01.545Z,10.70
2019-03-03T08:13:29.173Z,10.60
2019-03-03T08:15:56.696Z,10.60
2019-03-03T08:18:24.397Z,10.50
2019-03-03T08:20:53.518Z,10.50
2019-03-03T08:23:20.945Z,10.50
2019-03-03T08:25:48.571Z,10.60
2019-03-03T08:28:16.098Z,11.00
2019-03-03T08:30:43.894Z,11.40
2019-03-03T08:33:11.460Z,12.00
2019-03-03T08:35:39.034Z,12.60
2019-03-03T08:38:06.613Z,12.90
2019-03-03T08:40:34.215Z,13.00
2019-03-03T08:43:17.872Z,12.90
2019-03-03T08:46:04.212Z,12.90
2019-03-03T08:48:41.046Z,12.90
2019-03-03T08:51:40.518Z,12.90
2019-03-03T08:54:37.772Z,12.80
2019-03-03T08:57:24.960Z,12.80
2019-03-03T09:00:18.320Z,12.90
2019-03-03T09:03:05.542Z,12.90
2019-03-03T09:05:50.988Z,13.00
2019-03-03T09:08:35.388Z,13.20
2019-03-03T09:11:25.024Z,13.30
2019-03-03T09:14:11.792Z,13.50
2019-03-03T09:16:53.192Z,13.60
2019-03-03T09:19:45.087Z,13.70
2019-03-03T09:22:29.071Z,13.60
2019-03-03T09:25:16.842Z,13.50
2019-03-03T09:27:52.591Z,13.60
2019-03-03T09:30:42.843Z,13.80
2019-03-03T09:33:18.986Z,14.60
2019-03-03T09:35:59.650Z,16.70
2019-03-03T09:38:37.591Z,17.40
2019-03-03T09:41:19.174Z,17.10
2019-03-03T09:44:18.732Z,16.60
2019-03-03T09:47:10.170Z,16.00
2019-03-03T09:49:46.467Z,15.20
2019-03-03T09:52:23.862Z,14.60
2019-03-03T09:54:58.356Z,14.10
2019-03-03T09:57:56.687Z,13.90
2019-03-03T10:01:23.231Z,14.10
2019-03-03T10:09:41.151Z,15.40
2019-03-03T10:16:58.432Z,15.20
2019-03-03T10:19:40.266Z,14.90
2019-03-03T10:22:46.155Z,14.80
2019-03-03T10:25:32.637Z,14.70
2019-03-03T10:28:09.249Z,14.50
2019-03-03T10:30:56.469Z,14.50
2019-03-03T10:33:51.548Z,14.90
2019-03-03T10:36:39.384Z,16.10
2019-03-03T10:39:24.972Z,16.50
2019-03-03T10:42:12.933Z,16.20
2019-03-03T10:45:04.105Z,15.80
2019-03-03T10:47:57.641Z,15.50
2019-03-03T10:50:45.140Z,15.10
2019-03-03T10:53:25.049Z,14.70
2019-03-03T10:56:13.260Z,14.30
2019-03-03T10:58:57.035Z,13.90
2019-03-03T11:01:33.937Z,13.60
2019-03-03T11:04:44.218Z,13.40
2019-03-03T11:07:20.043Z,13.40
2019-03-03T11:10:19.155Z,13.20
2019-03-03T11:12:54.489Z,13.10
2019-03-03T11:15:47.633Z,13.00
2019-03-03T11:18:38.168Z,13.10
2019-03-03T11:21:19.573Z,12.90
2019-03-03T11:24:05.656Z,12.70
2019-03-03T11:26:41.215Z,12.70
2019-03-03T11:29:28.654Z,12.50
2019-03-03T11:32:16.068Z,12.40
2019-03-03T11:35:05.229Z,12.20
2019-03-03T11:38:10.146Z,12.20
2019-03-03T11:40:56.262Z,12.10
2019-03-03T11:43:45.248Z,12.20
2019-03-03T11:46:36.655Z,12.00
2019-03-03T11:49:30.031Z,11.90
2019-03-03T11:52:16.746Z,11.90
2019-03-03T11:55:00.875Z,11.80
2019-03-03T11:57:51.284Z,11.70
2019-03-03T12:00:51.630Z,11.80
2019-03-03T12:03:28.319Z,11.80
2019-03-03T12:06:09.663Z,12.00
2019-03-03T12:09:03.050Z,12.10
2019-03-03T12:11:40.438Z,12.20
2019-03-03T12:14:26.042Z,12.30
2019-03-03T12:17:05.263Z,12.30
2019-03-03T12:20:01.719Z,12.40
2019-03-03T12:23:05.274Z,12.50
2019-03-03T12:25:51.186Z,12.40
2019-03-03T12:28:33.890Z,12.30
2019-03-03T12:31:24.219Z,12.30
2019-03-03T12:34:02.819Z,12.40
2019-03-03T12:36:40.297Z,12.60
2019-03-03T12:39:15.516Z,12.80
2019-03-03T12:41:57.452Z,12.80
2019-03-03T12:44:39.688Z,12.80
2019-03-03T12:47:26.865Z,12.70
2019-03-03T12:50:04.448Z,12.70
2019-03-03T12:52:44.254Z,12.70
2019-03-03T12:55:18.787Z,12.70
2019-03-03T12:58:05.144Z,12.70
2019-03-03T13:00:52.614Z,12.70
2019-03-03T13:03:31.838Z,12.80
2019-03-03T13:06:08.453Z,12.80
2019-03-03T13:08:59.822Z,12.90
2019-03-03T13:11:45.665Z,12.90
2019-03-03T13:14:30.970Z,13.10
2019-03-03T13:17:17.295Z,13.40
2019-03-03T13:19:54.632Z,13.30
2019-03-03T13:22:46.558Z,13.30
2019-03-03T13:28:38.986Z,13.90
2019-03-03T13:31:17.805Z,14.10
2019-03-03T13:34:09.594Z,14.10
2019-03-03T13:36:59.044Z,14.70
2019-03-03T13:39:55.357Z,15.30
2019-03-03T13:42:31.353Z,15.40
2019-03-03T13:44:58.898Z,15.30
2019-03-03T13:47:26.513Z,15.70
2019-03-03T13:49:57.209Z,16.50
2019-03-03T13:52:24.696Z,17.40
2019-03-03T13:58:02.521Z,18.60
2019-03-03T14:00:30.178Z,19.20
2019-03-03T14:02:59.156Z,19.70
2019-03-03T14:05:26.964Z,20.00
2019-03-03T14:07:54.602Z,20.00
2019-03-03T14:10:25.347Z,19.50
2019-03-03T14:12:53.206Z,18.80
2019-03-03T14:15:24.903Z,18.30
2019-03-03T14:17:52.878Z,18.20
2019-03-03T14:20:21.718Z,18.10
2019-03-03T14:22:50.258Z,17.80
2019-03-03T14:25:17.895Z,17.70
2019-03-03T14:27:45.594Z,17.80
2019-03-03T14:30:16.209Z,17.70
2019-03-03T14:32:43.781Z,17.40
2019-03-03T14:35:12.431Z,16.80
2019-03-03T14:37:40.147Z,16.10
2019-03-03T14:40:09.923Z,15.60
2019-03-03T14:42:37.588Z,15.10
2019-03-03T14:45:09.156Z,14.70
2019-03-03T14:47:37.429Z,14.30
2019-03-03T14:50:06.594Z,13.90
2019-03-03T14:52:34.158Z,13.60
2019-03-03T14:55:01.856Z,13.40
2019-03-03T14:57:29.960Z,13.20
2019-03-03T14:59:57.570Z,13.00
2019-03-03T15:02:25.104Z,12.80
2019-03-03T15:04:52.485Z,12.70
2019-03-03T15:07:19.816Z,12.50
2019-03-03T15:09:50.376Z,12.40
2019-03-03T15:12:18.044Z,12.20
2019-03-03T15:14:45.547Z,12.10
2019-03-03T15:17:14.063Z,12.00
2019-03-03T15:19:41.870Z,11.90
2019-03-03T15:22:09.428Z,11.90
2019-03-03T15:24:37.071Z,11.80
2019-03-03T15:27:04.693Z,11.70
2019-03-03T15:29:32.443Z,11.60
2019-03-03T15:32:00.179Z,11.60
2019-03-03T15:34:27.739Z,11.60
2019-03-03T15:36:55.666Z,11.50
2019-03-03T15:39:23.123Z,11.40
2019-03-03T15:41:50.721Z,11.30
2019-03-03T15:44:18.529Z,11.20
2019-03-03T15:46:46.146Z,11.20
2019-03-03T15:49:13.818Z,11.10
2019-03-03T15:54:56.759Z,10.90
2019-03-03T15:57:24.330Z,10.80
2019-03-03T15:59:51.824Z,10.80
2019-03-03T16:02:19.655Z,10.60
2019-03-03T16:04:47.455Z,10.40
2019-03-03T16:07:14.786Z,10.30
2019-03-03T16:09:42.315Z,10.20
2019-03-03T16:12:09.852Z,10.20
2019-03-03T16:14:37.538Z,10.10
2019-03-03T16:17:05.388Z,10.00
2019-03-03T16:19:33.123Z,9.90
2019-03-03T16:22:00.640Z,9.90
2019-03-03T16:24:28.239Z,9.80
2019-03-03T16:26:55.614Z,9.80
2019-03-03T16:29:23.232Z,9.80
2019-03-03T16:31:50.807Z,9.60
2019-03-03T16:34:18.625Z,9.50
2019-03-03T16:36:46.616Z,9.40
2019-03-03T16:39:14.711Z,9.30
2019-03-03T16:41:42.296Z,9.20
2019-03-03T16:44:10.676Z,9.10
2019-03-03T16:46:40.466Z,9.10
2019-03-03T16:49:08.219Z,9.10
2019-03-03T16:51:37.655Z,9.00
2019-03-03T16:54:06.937Z,8.90
2019-03-03T16:56:36.466Z,8.90
2019-03-03T16:59:06.330Z,8.80
2019-03-03T17:01:33.876Z,8.80
2019-03-03T17:04:02.490Z,8.70
2019-03-03T17:06:30.346Z,8.70
2019-03-03T17:08:58.084Z,8.70
2019-03-03T17:11:26.431Z,8.70
2019-03-03T17:13:54.499Z,8.70
2019-03-03T17:16:21.912Z,8.70
2019-03-03T17:18:49.508Z,8.70
2019-03-03T17:21:17.075Z,8.70
2019-03-03T17:23:44.474Z,8.70
2019-03-03T17:26:12.817Z,8.70
2019-03-03T17:28:40.441Z,8.60
2019-03-03T17:31:08.128Z,8.70
2019-03-03T17:33:35.632Z,8.80
2019-03-03T17:36:03.215Z,8.70
2019-03-03T17:38:31.354Z,8.70
2019-03-03T17:40:58.642Z,8.80
2019-03-03T17:43:26.192Z,8.80
2019-03-03T17:45:53.872Z,8.90
2019-03-03T17:48:21.282Z,8.90
2019-03-03T17:50:49.596Z,9.00
2019-03-03T17:53:17.463Z,9.00
2019-03-03T17:55:45.230Z,9.00
2019-03-03T17:58:13.535Z,9.10
2019-03-03T18:00:42.256Z,9.10
2019-03-03T18:03:09.775Z,9.10
2019-03-03T18:05:39.096Z,9.10
2019-03-03T18:08:07.215Z,9.10
2019-03-03T18:10:34.740Z,9.20
2019-03-03T18:13:04.481Z,9.10
2019-03-03T18:15:34.327Z,9.10
2019-03-03T18:18:02.594Z,9.10
2019-03-03T18:20:30.628Z,9.10
2019-03-03T18:22:59.640Z,9.10
2019-03-03T18:25:27.187Z,9.00
2019-03-03T18:27:54.728Z,9.00
2019-03-03T18:30:23.203Z,9.00
2019-03-03T18:33:20.259Z,9.00
2019-03-03T18:35:48.255Z,8.90
2019-03-03T18:38:15.736Z,8.90
2019-03-03T18:40:43.959Z,8.90
2019-03-03T18:43:13.150Z,8.90
2019-03-03T18:45:40.611Z,9.00
2019-03-03T18:48:08.510Z,9.00
2019-03-03T18:50:36.000Z,9.00
2019-03-03T18:53:04.022Z,9.00
2019-03-03T18:55:31.624Z,9.00
2019-03-03T18:57:59.146Z,9.00
2019-03-03T19:00:26.986Z,9.10
2019-03-03T19:02:55.071Z,9.10
2019-03-03T19:05:29.758Z,9.00
2019-03-03T19:08:00.482Z,9.00
2019-03-03T19:10:29.755Z,9.00
2019-03-03T19:12:58.927Z,9.00
2019-03-03T19:15:28.303Z,9.00
2019-03-03T19:18:01.534Z,9.00
2019-03-03T19:20:33.045Z,9.00
2019-03-03T19:23:00.782Z,9.00
2019-03-03T19:25:28.303Z,9.10
2019-03-03T19:27:57.814Z,9.00
2019-03-03T19:30:25.579Z,9.00
2019-03-03T19:33:19.434Z,9.00
2019-03-03T19:35:47.131Z,9.10
2019-03-03T19:38:14.941Z,9.00
2019-03-03T19:40:43.710Z,9.10
2019-03-03T19:43:11.210Z,9.10
2019-03-03T19:45:38.971Z,9.00
2019-03-03T19:48:07.311Z,9.10
2019-03-03T19:50:34.897Z,9.00
2019-03-03T19:53:02.887Z,9.00
2019-03-03T19:55:30.696Z,9.10
2019-03-03T19:57:58.434Z,9.10
2019-03-03T20:00:35.375Z,9.10
2019-03-03T20:02:58.458Z,9.10
2019-03-03T20:05:26.193Z,9.10
2019-03-03T20:07:54.841Z,9.20
2019-03-03T20:10:22.410Z,9.10
2019-03-03T20:12:50.063Z,9.20
2019-03-03T20:15:17.826Z,9.20
2019-03-03T20:17:46.819Z,9.20
2019-03-03T20:20:15.718Z,9.20
2019-03-03T20:22:43.785Z,9.20
2019-03-03T20:25:11.676Z,9.20
2019-03-03T20:27:39.245Z,9.30
2019-03-03T20:30:10.341Z,9.30
2019-03-03T20:32:43.341Z,9.40
2019-03-03T20:35:11.949Z,9.40
2019-03-03T20:37:40.260Z,9.50
2019-03-03T20:40:11.870Z,9.50
2019-03-03T20:42:39.491Z,9.50
2019-03-03T20:45:10.745Z,9.50
2019-03-03T20:47:42.967Z,9.50
2019-03-03T20:50:17.106Z,9.50
2019-03-03T20:52:44.997Z,9.60
2019-03-03T20:55:14.206Z,9.60
2019-03-03T20:57:42.052Z,9.50
2019-03-03T21:00:16.645Z,9.50
2019-03-03T21:02:47.500Z,9.50
2019-03-03T21:05:15.171Z,9.50
2019-03-03T21:07:50.946Z,9.50
2019-03-03T21:10:17.134Z,9.50
2019-03-03T21:12:44.691Z,9.40
2019-03-03T21:15:12.535Z,9.40
2019-03-03T21:17:40.442Z,9.40
2019-03-03T21:20:10.817Z,9.40
2019-03-03T21:22:40.070Z,9.40
2019-03-03T21:25:09.379Z,9.40
2019-03-03T21:27:37.724Z,9.50
2019-03-03T21:30:13.862Z,9.50
2019-03-03T21:32:41.724Z,9.50
2019-03-03T21:35:09.286Z,9.60
2019-03-03T21:37:36.852Z,9.60
2019-03-03T21:40:09.177Z,9.70
2019-03-03T21:42:37.079Z,9.90
2019-03-03T21:45:06.233Z,9.80
2019-03-03T21:47:33.593Z,9.80
2019-03-03T21:50:01.106Z,10.00
2019-03-03T21:52:28.808Z,10.00
2019-03-03T21:54:56.242Z,10.10
2019-03-03T21:57:23.965Z,10.10
2019-03-03T21:59:51.698Z,10.10
2019-03-03T22:02:19.157Z,10.10
2019-03-03T22:04:46.746Z,10.20
2019-03-03T22:07:14.154Z,10.20
2019-03-03T22:09:42.104Z,10.20
2019-03-03T22:12:09.690Z,10.30
2019-03-03T22:14:37.189Z,10.30
2019-03-03T22:17:04.665Z,10.20
2019-03-03T22:19:32.416Z,10.20
2019-03-03T22:21:59.901Z,10.20
2019-03-03T22:24:27.325Z,10.20
2019-03-03T22:26:55.082Z,10.20
2019-03-03T22:29:22.948Z,10.10
2019-03-03T22:31:50.412Z,10.10
2019-03-03T22:34:18.792Z,10.20
2019-03-03T22:36:46.180Z,10.20
2019-03-03T22:39:14.007Z,10.20
2019-03-03T22:41:42.058Z,10.20
2019-03-03T22:44:09.604Z,10.10
2019-03-03T22:46:36.958Z,10.20
2019-03-03T22:49:04.607Z,10.20
2019-03-03T22:51:32.073Z,10.20
2019-03-03T22:53:59.459Z,10.20
2019-03-03T22:56:26.927Z,10.20
2019-03-03T22:58:54.375Z,10.20
2019-03-03T23:01:33.498Z,10.20
2019-03-03T23:05:06.779Z,10.20
2019-03-03T23:08:10.443Z,10.20
2019-03-03T23:11:23.589Z,10.10
2019-03-03T23:14:44.443Z,10.10
2019-03-03T23:18:00.446Z,10.10
2019-03-03T23:20:49.049Z,9.90
2019-03-03T23:24:16.371Z,9.80
2019-03-03T23:26:44.905Z,9.70
2019-03-03T23:29:12.222Z,9.60
2019-03-03T23:31:39.712Z,9.50
2019-03-03T23:34:07.213Z,9.50
2019-03-03T23:36:34.936Z,9.40
2019-03-03T23:39:04.700Z,9.40
2019-03-03T23:41:34.198Z,9.30
2019-03-03T23:44:01.714Z,9.30
2019-03-03T23:46:29.501Z,9.30
2019-03-03T23:48:57.064Z,9.30
2019-03-03T23:51:24.583Z,9.20
2019-03-03T23:53:51.937Z,9.20
2019-03-03T23:56:19.322Z,9.10
2019-03-03T23:58:46.926Z,9.00
